sensor_id;sensor_type;location;lat;lon;timestamp;pressure;altitude;pressure_sealevel;temperature;humidity
36630;BME280;36256;42.154;23.002;2024-03-23T00:56:15;97340.66;;;4.33;85.41
36630;BME280;36256;42.154;23.002;2024-03-23T00:58:40;97326.69;;;4.40;83.77
36630;BME280;36256;42.154;23.002;2024-03-23T01:01:06;97327.94;;;4.36;83.73
36630;BME280;36256;42.154;23.002;2024-03-23T01:03:32;97335.03;;;4.40;86.15
36630;BME280;36256;42.154;23.002;2024-03-23T01:06:01;97329.06;;;4.42;86.19
36630;BME280;36256;42.154;23.002;2024-03-23T01:08:27;97333.44;;;4.39;85.35
36630;BME280;36256;42.154;23.002;2024-03-23T01:10:57;97333.44;;;4.39;85.25
36630;BME280;36256;42.154;23.002;2024-03-23T01:13:23;97334.28;;;4.36;84.95
36630;BME280;36256;42.154;23.002;2024-03-23T01:15:50;97327.19;;;4.32;85.72
36630;BME280;36256;42.154;23.002;2024-03-23T01:18:17;97327.63;;;4.27;85.72
36630;BME280;36256;42.154;23.002;2024-03-23T01:20:43;97335.16;;;4.30;85.91
36630;BME280;36256;42.154;23.002;2024-03-23T01:23:09;97330.00;;;4.28;85.83
36630;BME280;36256;42.154;23.002;2024-03-23T01:25:34;97329.53;;;4.33;84.53
36630;BME280;36256;42.154;23.002;2024-03-23T01:28:00;97326.38;;;4.35;83.56
36630;BME280;36256;42.154;23.002;2024-03-23T01:30:26;97328.78;;;4.33;84.29
36630;BME280;36256;42.154;23.002;2024-03-23T01:32:51;97323.63;;;4.31;84.90
36630;BME280;36256;42.154;23.002;2024-03-23T01:35:17;97314.53;;;4.27;84.77
36630;BME280;36256;42.154;23.002;2024-03-23T01:37:43;97323.63;;;4.31;83.37
36630;BME280;36256;42.154;23.002;2024-03-23T01:40:09;97328.03;;;4.25;83.56
36630;BME280;36256;42.154;23.002;2024-03-23T01:42:34;97328.16;;;4.15;84.19
36630;BME280;36256;42.154;23.002;2024-03-23T01:45:00;97335.66;;;4.18;86.13
36630;BME280;36256;42.154;23.002;2024-03-23T01:47:26;97329.28;;;4.21;88.70
36630;BME280;36256;42.154;23.002;2024-03-23T01:49:51;97320.19;;;4.20;89.12
36630;BME280;36256;42.154;23.002;2024-03-23T01:52:17;97329.31;;;4.17;89.06
36630;BME280;36256;42.154;23.002;2024-03-23T01:54:43;97324.25;;;4.09;89.77
36630;BME280;36256;42.154;23.002;2024-03-23T01:57:10;97325.94;;;3.99;90.21
36630;BME280;36256;42.154;23.002;2024-03-23T01:59:35;97325.22;;;3.88;91.56
36630;BME280;36256;42.154;23.002;2024-03-23T02:02:01;97326.03;;;3.85;92.16
36630;BME280;36256;42.154;23.002;2024-03-23T02:04:27;97325.31;;;3.74;92.19
36630;BME280;36256;42.154;23.002;2024-03-23T02:06:52;97328.56;;;3.69;93.12
36630;BME280;36256;42.154;23.002;2024-03-23T02:09:18;97329.34;;;3.66;93.42
36630;BME280;36256;42.154;23.002;2024-03-23T02:11:44;97325.44;;;3.60;94.25
36630;BME280;36256;42.154;23.002;2024-03-23T02:14:09;97325.47;;;3.53;94.37
36630;BME280;36256;42.154;23.002;2024-03-23T02:16:35;97338.13;;;3.57;93.40
36630;BME280;36256;42.154;23.002;2024-03-23T02:19:00;97331.09;;;3.46;94.44
36630;BME280;36256;42.154;23.002;2024-03-23T02:21:26;97333.19;;;3.28;95.22
36630;BME280;36256;42.154;23.002;2024-03-23T02:23:53;97336.78;;;3.25;94.71
36630;BME280;36256;42.154;23.002;2024-03-23T02:26:18;97341.59;;;3.13;94.71
36630;BME280;36256;42.154;23.002;2024-03-23T02:28:44;97337.66;;;3.07;95.13
36630;BME280;36256;42.154;23.002;2024-03-23T02:31:10;97340.81;;;3.09;94.01
36630;BME280;36256;42.154;23.002;2024-03-23T02:33:36;97340.81;;;3.09;94.17
36630;BME280;36256;42.154;23.002;2024-03-23T02:36:03;97343.19;;;3.14;93.47
36630;BME280;36256;42.154;23.002;2024-03-23T02:38:29;97328.81;;;3.30;90.46
36630;BME280;36256;42.154;23.002;2024-03-23T02:41:02;97338.28;;;3.40;92.46
36630;BME280;36256;42.154;23.002;2024-03-23T02:43:27;97343.41;;;3.41;93.11
36630;BME280;36256;42.154;23.002;2024-03-23T02:45:53;97342.19;;;3.46;92.18
36630;BME280;36256;42.154;23.002;2024-03-23T02:48:18;97348.88;;;3.52;91.89
36630;BME280;36256;42.154;23.002;2024-03-23T02:50:44;97343.75;;;3.47;92.17
36630;BME280;36256;42.154;23.002;2024-03-23T02:53:10;97351.28;;;3.50;92.07
36630;BME280;36256;42.154;23.002;2024-03-23T02:55:35;97351.31;;;3.43;91.95
36630;BME280;36256;42.154;23.002;2024-03-23T02:58:01;97350.44;;;3.53;93.77
36630;BME280;36256;42.154;23.002;2024-03-23T03:00:30;97343.63;;;3.64;93.72
36630;BME280;36256;42.154;23.002;2024-03-23T03:02:56;97355.53;;;3.65;92.57
36630;BME280;36256;42.154;23.002;2024-03-23T03:05:22;97342.41;;;3.69;90.51
36630;BME280;36256;42.154;23.002;2024-03-23T03:07:47;97347.53;;;3.74;88.92
36630;BME280;36256;42.154;23.002;2024-03-23T03:10:13;97336.53;;;3.60;88.76
36630;BME280;36256;42.154;23.002;2024-03-23T03:12:39;97348.41;;;3.64;89.31
36630;BME280;36256;42.154;23.002;2024-03-23T03:15:06;97345.25;;;3.62;90.93
36630;BME280;36256;42.154;23.002;2024-03-23T03:17:32;97330.25;;;3.49;89.36
36630;BME280;36256;42.154;23.002;2024-03-23T03:19:57;97345.72;;;3.50;89.65
36630;BME280;36256;42.154;23.002;2024-03-23T03:22:23;97346.06;;;3.55;89.65
36630;BME280;36256;42.154;23.002;2024-03-23T03:24:49;97337.41;;;3.50;88.76
36630;BME280;36256;42.154;23.002;2024-03-23T03:27:14;97339.72;;;3.58;88.14
36630;BME280;36256;42.154;23.002;2024-03-23T03:29:40;97347.66;;;3.53;88.20
36630;BME280;36256;42.154;23.002;2024-03-23T03:32:06;97350.09;;;3.47;91.32
36630;BME280;36256;42.154;23.002;2024-03-23T03:34:32;97342.22;;;3.39;92.13
36630;BME280;36256;42.154;23.002;2024-03-23T03:36:57;97342.19;;;3.46;91.30
36630;BME280;36256;42.154;23.002;2024-03-23T03:39:24;97336.69;;;3.39;93.83
36630;BME280;36256;42.154;23.002;2024-03-23T03:41:49;97338.28;;;3.40;94.08
36630;BME280;36256;42.154;23.002;2024-03-23T03:44:16;97332.75;;;3.33;94.25
36630;BME280;36256;42.154;23.002;2024-03-23T03:46:42;97334.41;;;3.19;94.72
36630;BME280;36256;42.154;23.002;2024-03-23T03:49:08;97342.31;;;3.25;95.04
36630;BME280;36256;42.154;23.002;2024-03-23T03:51:34;97348.28;;;3.19;94.58
36630;BME280;36256;42.154;23.002;2024-03-23T03:53:59;97349.50;;;3.18;93.06
36630;BME280;36256;42.154;23.002;2024-03-23T03:56:25;97348.78;;;3.04;93.81
36630;BME280;36256;42.154;23.002;2024-03-23T03:58:51;97343.31;;;2.86;96.50
36630;BME280;36256;42.154;23.002;2024-03-23T04:01:16;97342.16;;;2.73;97.38
36630;BME280;36256;42.154;23.002;2024-03-23T04:03:43;97350.50;;;2.66;97.92
36630;BME280;36256;42.154;23.002;2024-03-23T04:06:09;97346.53;;;2.67;98.20
36630;BME280;36256;42.154;23.002;2024-03-23T04:08:35;97355.22;;;2.73;97.65
36630;BME280;36256;42.154;23.002;2024-03-23T04:11:01;97352.84;;;2.78;98.13
36630;BME280;36256;42.154;23.002;2024-03-23T04:13:27;97353.56;;;2.89;97.96
36630;BME280;36256;42.154;23.002;2024-03-23T04:15:56;97351.97;;;2.92;97.69
36630;BME280;36256;42.154;23.002;2024-03-23T04:18:22;97365.84;;;2.88;97.29
36630;BME280;36256;42.154;23.002;2024-03-23T04:20:48;97359.13;;;2.93;94.07
36630;BME280;36256;42.154;23.002;2024-03-23T04:23:14;97364.66;;;2.89;92.29
36630;BME280;36256;42.154;23.002;2024-03-23T04:25:40;97363.09;;;2.88;93.00
36630;BME280;36256;42.154;23.002;2024-03-23T04:28:05;97362.28;;;2.91;96.01
36630;BME280;36256;42.154;23.002;2024-03-23T04:30:32;97365.03;;;2.95;95.98
36630;BME280;36256;42.154;23.002;2024-03-23T04:32:57;97367.41;;;2.89;95.21
36630;BME280;36256;42.154;23.002;2024-03-23T04:35:24;97363.94;;;2.78;97.01
36630;BME280;36256;42.154;23.002;2024-03-23T04:37:53;97360.00;;;2.72;100.00
36630;BME280;36256;42.154;23.002;2024-03-23T04:40:21;97365.53;;;2.72;97.18
36630;BME280;36256;42.154;23.002;2024-03-23T04:42:47;97367.94;;;2.60;96.15
36630;BME280;36256;42.154;23.002;2024-03-23T04:45:13;97354.53;;;2.41;96.22
36630;BME280;36256;42.154;23.002;2024-03-23T04:47:38;97360.50;;;2.32;94.02
36630;BME280;36256;42.154;23.002;2024-03-23T04:50:04;97363.66;;;2.27;93.23
36630;BME280;36256;42.154;23.002;2024-03-23T04:52:30;97366.00;;;2.28;94.97
36630;BME280;36256;42.154;23.002;2024-03-23T04:54:56;97372.75;;;2.31;96.30
36630;BME280;36256;42.154;23.002;2024-03-23T04:57:22;97369.59;;;2.29;99.16
36630;BME280;36256;42.154;23.002;2024-03-23T04:59:47;97363.25;;;2.25;100.00
36630;BME280;36256;42.154;23.002;2024-03-23T05:02:14;97374.34;;;2.32;100.00
36630;BME280;36256;42.154;23.002;2024-03-23T05:04:39;97374.72;;;2.30;100.00
36630;BME280;36256;42.154;23.002;2024-03-23T05:07:08;97370.38;;;2.29;100.00
36630;BME280;36256;42.154;23.002;2024-03-23T05:09:34;97367.19;;;2.34;100.00
36630;BME280;36256;42.154;23.002;2024-03-23T05:12:00;97385.38;;;2.46;99.37
36630;BME280;36256;42.154;23.002;2024-03-23T05:14:26;97370.31;;;2.61;97.73
36630;BME280;36256;42.154;23.002;2024-03-23T05:16:52;97382.56;;;2.67;97.18
36630;BME280;36256;42.154;23.002;2024-03-23T05:19:18;97377.03;;;2.60;97.40
36630;BME280;36256;42.154;23.002;2024-03-23T05:21:44;97381.31;;;2.79;97.44
36630;BME280;36256;42.154;23.002;2024-03-23T05:24:10;97370.25;;;2.82;96.74
36630;BME280;36256;42.154;23.002;2024-03-23T05:26:35;97386.88;;;2.82;96.59
36630;BME280;36256;42.154;23.002;2024-03-23T05:29:02;97379.75;;;2.78;96.05
36630;BME280;36256;42.154;23.002;2024-03-23T05:31:29;97380.94;;;2.80;96.05
36630;BME280;36256;42.154;23.002;2024-03-23T05:33:56;97370.25;;;2.82;96.59
36630;BME280;36256;42.154;23.002;2024-03-23T05:36:22;97377.31;;;2.94;96.33
36630;BME280;36256;42.154;23.002;2024-03-23T05:38:49;97381.66;;;3.02;95.76
36630;BME280;36256;42.154;23.002;2024-03-23T05:41:14;97385.13;;;3.20;94.14
36630;BME280;36256;42.154;23.002;2024-03-23T05:43:40;97381.50;;;3.30;93.59
36630;BME280;36256;42.154;23.002;2024-03-23T05:46:06;97377.88;;;3.44;93.09
36630;BME280;36256;42.154;23.002;2024-03-23T05:48:33;97382.31;;;3.89;91.51
36630;BME280;36256;42.154;23.002;2024-03-23T05:50:59;97374.88;;;4.23;88.48
36630;BME280;36256;42.154;23.002;2024-03-23T05:53:24;97375.91;;;4.40;87.16
36630;BME280;36256;42.154;23.002;2024-03-23T05:55:51;97372.75;;;4.78;86.43
36630;BME280;36256;42.154;23.002;2024-03-23T05:58:19;97378.75;;;5.07;83.04
36630;BME280;36256;42.154;23.002;2024-03-23T06:00:45;97367.69;;;5.61;81.38
36630;BME280;36256;42.154;23.002;2024-03-23T06:03:11;97362.00;;;6.21;77.35
36630;BME280;36256;42.154;23.002;2024-03-23T06:05:37;97351.28;;;6.43;75.21
36630;BME280;36256;42.154;23.002;2024-03-23T06:08:04;97349.16;;;6.70;72.96
36630;BME280;36256;42.154;23.002;2024-03-23T06:10:30;97341.25;;;6.68;72.46
36630;BME280;36256;42.154;23.002;2024-03-23T06:12:55;97344.69;;;6.95;71.69
36630;BME280;36256;42.154;23.002;2024-03-23T06:15:21;97341.09;;;7.34;70.21
36630;BME280;36256;42.154;23.002;2024-03-23T06:17:48;97336.16;;;7.93;67.37
36630;BME280;36256;42.154;23.002;2024-03-23T06:20:14;97326.09;;;8.12;65.18
36630;BME280;36256;42.154;23.002;2024-03-23T06:22:40;97323.66;;;8.75;62.72
36630;BME280;36256;42.154;23.002;2024-03-23T06:25:06;97314.06;;;9.17;60.83
36630;BME280;36256;42.154;23.002;2024-03-23T06:27:32;97315.91;;;9.36;59.75
36630;BME280;36256;42.154;23.002;2024-03-23T06:29:59;97313.03;;;9.90;58.28
36630;BME280;36256;42.154;23.002;2024-03-23T06:32:24;97311.91;;;10.13;57.42
36630;BME280;36256;42.154;23.002;2024-03-23T06:34:50;97307.31;;;10.19;57.11
36630;BME280;36256;42.154;23.002;2024-03-23T06:37:16;97317.81;;;10.40;56.38
36630;BME280;36256;42.154;23.002;2024-03-23T06:39:41;97307.91;;;10.82;55.95
36630;BME280;36256;42.154;23.002;2024-03-23T06:42:07;97308.47;;;10.77;54.82
36630;BME280;36256;42.154;23.002;2024-03-23T06:44:33;97314.34;;;10.92;55.38
36630;BME280;36256;42.154;23.002;2024-03-23T06:46:59;97314.84;;;10.56;55.37
36630;BME280;36256;42.154;23.002;2024-03-23T06:49:25;97310.72;;;10.82;56.13
36630;BME280;36256;42.154;23.002;2024-03-23T06:51:51;97313.31;;;10.98;55.28
36630;BME280;36256;42.154;23.002;2024-03-23T06:54:17;97308.50;;;11.21;54.48
36630;BME280;36256;42.154;23.002;2024-03-23T06:56:46;97303.47;;;11.68;53.15
36630;BME280;36256;42.154;23.002;2024-03-23T06:59:11;97299.16;;;11.76;52.85
36630;BME280;36256;42.154;23.002;2024-03-23T07:01:37;97291.72;;;11.91;52.47
36630;BME280;36256;42.154;23.002;2024-03-23T07:04:04;97294.31;;;11.46;53.18
36630;BME280;36256;42.154;23.002;2024-03-23T07:06:30;97295.31;;;11.92;53.36
36630;BME280;36256;42.154;23.002;2024-03-23T07:08:56;97291.50;;;12.25;52.15
36630;BME280;36256;42.154;23.002;2024-03-23T07:11:23;97285.31;;;12.39;52.71
36630;BME280;36256;42.154;23.002;2024-03-23T07:13:53;97279.38;;;12.65;51.12
36630;BME280;36256;42.154;23.002;2024-03-23T07:16:22;97278.47;;;12.86;51.25
36630;BME280;36256;42.154;23.002;2024-03-23T07:18:47;97292.53;;;12.77;50.21
36630;BME280;36256;42.154;23.002;2024-03-23T07:21:15;97309.13;;;12.84;50.06
36630;BME280;36256;42.154;23.002;2024-03-23T07:23:44;97306.28;;;12.93;50.04
36630;BME280;36256;42.154;23.002;2024-03-23T07:26:13;97305.50;;;12.83;49.41
36630;BME280;36256;42.154;23.002;2024-03-23T07:28:39;97297.69;;;13.05;49.69
36630;BME280;36256;42.154;23.002;2024-03-23T07:31:13;97300.34;;;13.18;49.70
36630;BME280;36256;42.154;23.002;2024-03-23T07:33:44;97300.78;;;13.53;49.50
36630;BME280;36256;42.154;23.002;2024-03-23T07:36:10;97298.03;;;13.85;48.89
36630;BME280;36256;42.154;23.002;2024-03-23T07:38:36;97289.19;;;13.51;50.25
36630;BME280;36256;42.154;23.002;2024-03-23T07:41:06;97294.25;;;13.10;50.55
36630;BME280;36256;42.154;23.002;2024-03-23T07:43:32;97295.69;;;13.15;50.82
36630;BME280;36256;42.154;23.002;2024-03-23T07:45:59;97290.91;;;13.48;50.51
36630;BME280;36256;42.154;23.002;2024-03-23T07:48:25;97292.44;;;13.67;49.52
36630;BME280;36256;42.154;23.002;2024-03-23T07:51:07;97288.78;;;13.85;49.47
36630;BME280;36256;42.154;23.002;2024-03-23T07:53:34;97277.78;;;14.19;49.70
36630;BME280;36256;42.154;23.002;2024-03-23T07:56:02;97276.22;;;14.18;50.76
36630;BME280;36256;42.154;23.002;2024-03-23T07:58:28;97278.63;;;14.44;50.23
36630;BME280;36256;42.154;23.002;2024-03-23T08:00:55;97282.34;;;14.73;49.26
36630;BME280;36256;42.154;23.002;2024-03-23T08:03:21;97279.84;;;14.90;49.66
36630;BME280;36256;42.154;23.002;2024-03-23T08:05:47;97277.72;;;14.38;49.31
36630;BME280;36256;42.154;23.002;2024-03-23T08:08:13;97272.97;;;14.67;49.44
36630;BME280;36256;42.154;23.002;2024-03-23T08:10:51;97270.84;;;14.77;48.23
36630;BME280;36256;42.154;23.002;2024-03-23T08:13:18;97265.19;;;15.15;49.16
36630;BME280;36256;42.154;23.002;2024-03-23T08:15:44;97260.81;;;15.29;48.38
36630;BME280;36256;42.154;23.002;2024-03-23T08:18:11;97254.28;;;15.37;48.07
36630;BME280;36256;42.154;23.002;2024-03-23T08:20:37;97260.72;;;15.52;47.84
36630;BME280;36256;42.154;23.002;2024-03-23T08:23:05;97260.34;;;15.59;48.29
36630;BME280;36256;42.154;23.002;2024-03-23T08:25:31;97260.03;;;15.87;47.44
36630;BME280;36256;42.154;23.002;2024-03-23T08:27:57;97247.19;;;16.06;47.05
36630;BME280;36256;42.154;23.002;2024-03-23T08:30:23;97243.75;;;16.16;46.77
36630;BME280;36256;42.154;23.002;2024-03-23T08:32:49;97243.88;;;16.42;46.51
36630;BME280;36256;42.154;23.002;2024-03-23T08:35:15;97245.75;;;16.65;48.20
36630;BME280;36256;42.154;23.002;2024-03-23T08:37:41;97234.75;;;16.32;46.88
36630;BME280;36256;42.154;23.002;2024-03-23T08:40:07;97235.81;;;16.75;46.42
36630;BME280;36256;42.154;23.002;2024-03-23T08:42:34;97226.78;;;16.51;46.96
36630;BME280;36256;42.154;23.002;2024-03-23T08:45:00;97228.44;;;16.43;47.54
36630;BME280;36256;42.154;23.002;2024-03-23T08:47:25;97227.22;;;16.64;47.00
36630;BME280;36256;42.154;23.002;2024-03-23T08:49:51;97209.81;;;17.22;46.08
36630;BME280;36256;42.154;23.002;2024-03-23T08:52:17;97215.59;;;17.34;45.74
36630;BME280;36256;42.154;23.002;2024-03-23T08:54:42;97207.25;;;17.24;46.52
36630;BME280;36256;42.154;23.002;2024-03-23T08:57:08;97204.00;;;17.37;45.80
36630;BME280;36256;42.154;23.002;2024-03-23T08:59:34;97204.31;;;17.70;45.79
36630;BME280;36256;42.154;23.002;2024-03-23T09:02:00;97205.47;;;17.84;45.95
36630;BME280;36256;42.154;23.002;2024-03-23T09:04:26;97192.41;;;17.97;45.97
36630;BME280;36256;42.154;23.002;2024-03-23T09:06:51;97193.13;;;17.56;44.32
36630;BME280;36256;42.154;23.002;2024-03-23T09:09:17;97182.31;;;17.60;44.73
36630;BME280;36256;42.154;23.002;2024-03-23T09:11:43;97178.91;;;17.87;44.98
36630;BME280;36256;42.154;23.002;2024-03-23T09:14:09;97170.59;;;17.78;43.57
36630;BME280;36256;42.154;23.002;2024-03-23T09:16:34;97160.97;;;18.07;42.99
36630;BME280;36256;42.154;23.002;2024-03-23T09:19:00;97152.69;;;18.03;42.28
36630;BME280;36256;42.154;23.002;2024-03-23T09:21:26;97141.69;;;18.16;43.43
36630;BME280;36256;42.154;23.002;2024-03-23T09:23:52;97145.50;;;18.61;43.86
36630;BME280;36256;42.154;23.002;2024-03-23T09:26:17;97134.47;;;18.85;41.77
36630;BME280;36256;42.154;23.002;2024-03-23T09:28:43;97133.59;;;18.51;41.51
36630;BME280;36256;42.154;23.002;2024-03-23T09:31:09;97128.31;;;19.86;40.37
36630;BME280;36256;42.154;23.002;2024-03-23T09:33:39;97117.72;;;19.53;40.60
36630;BME280;36256;42.154;23.002;2024-03-23T09:36:06;97108.13;;;19.29;42.40
36630;BME280;36256;42.154;23.002;2024-03-23T09:38:32;97112.56;;;20.54;38.82
36630;BME280;36256;42.154;23.002;2024-03-23T09:40:58;97112.81;;;21.02;36.50
36630;BME280;36256;42.154;23.002;2024-03-23T09:43:27;97141.56;;;20.58;37.33
36630;BME280;36256;42.154;23.002;2024-03-23T09:45:53;97136.38;;;20.62;37.43
36630;BME280;36256;42.154;23.002;2024-03-23T09:48:19;97133.63;;;20.40;38.23
36630;BME280;36256;42.154;23.002;2024-03-23T09:50:45;97124.59;;;20.36;40.57
36630;BME280;36256;42.154;23.002;2024-03-23T09:53:13;97115.16;;;19.50;38.25
36630;BME280;36256;42.154;23.002;2024-03-23T09:55:40;97110.41;;;18.86;39.55
36630;BME280;36256;42.154;23.002;2024-03-23T09:58:06;97109.03;;;17.53;40.00
36630;BME280;36256;42.154;23.002;2024-03-23T10:00:33;97099.84;;;17.69;40.98
36630;BME280;36256;42.154;23.002;2024-03-23T10:02:59;97097.81;;;17.75;40.76
36630;BME280;36256;42.154;23.002;2024-03-23T10:05:28;97087.25;;;17.75;39.91
36630;BME280;36256;42.154;23.002;2024-03-23T10:07:54;97085.69;;;17.74;41.13
36630;BME280;36256;42.154;23.002;2024-03-23T10:10:20;97087.00;;;17.42;40.56
36630;BME280;36256;42.154;23.002;2024-03-23T10:12:48;97079.50;;;17.39;39.96
36630;BME280;36256;42.154;23.002;2024-03-23T10:15:21;97071.59;;;17.17;41.15
36630;BME280;36256;42.154;23.002;2024-03-23T10:17:47;97069.03;;;17.19;40.57
36630;BME280;36256;42.154;23.002;2024-03-23T10:20:23;97062.09;;;17.20;40.40
36630;BME280;36256;42.154;23.002;2024-03-23T10:22:49;97061.53;;;17.16;40.39
36630;BME280;36256;42.154;23.002;2024-03-23T10:25:15;97056.63;;;16.86;41.00
36630;BME280;36256;42.154;23.002;2024-03-23T10:27:41;97053.31;;;16.87;41.69
36630;BME280;36256;42.154;23.002;2024-03-23T10:30:09;97053.19;;;17.39;41.93
36630;BME280;36256;42.154;23.002;2024-03-23T10:32:35;97053.44;;;17.41;40.66
36630;BME280;36256;42.154;23.002;2024-03-23T10:35:20;97038.13;;;17.58;39.89
36630;BME280;36256;42.154;23.002;2024-03-23T10:37:49;97036.94;;;17.76;40.06
36630;BME280;36256;42.154;23.002;2024-03-23T10:40:17;97024.63;;;17.48;39.05
36630;BME280;36256;42.154;23.002;2024-03-23T10:42:44;97021.56;;;17.51;38.53
36630;BME280;36256;42.154;23.002;2024-03-23T10:45:10;97021.63;;;17.57;37.87
36630;BME280;36256;42.154;23.002;2024-03-23T10:47:36;97020.66;;;17.71;38.03
36630;BME280;36256;42.154;23.002;2024-03-23T10:50:03;97008.56;;;17.76;41.82
36630;BME280;36256;42.154;23.002;2024-03-23T10:52:31;97010.22;;;18.10;40.95
36630;BME280;36256;42.154;23.002;2024-03-23T10:54:58;96991.97;;;18.28;39.00
36630;BME280;36256;42.154;23.002;2024-03-23T10:57:31;96993.50;;;18.18;37.58
36630;BME280;36256;42.154;23.002;2024-03-23T11:00:02;96989.13;;;18.33;35.52
36630;BME280;36256;42.154;23.002;2024-03-23T11:02:28;96977.50;;;18.26;33.35
36630;BME280;36256;42.154;23.002;2024-03-23T11:04:55;96974.91;;;18.22;39.07
36630;BME280;36256;42.154;23.002;2024-03-23T11:09:50;96964.38;;;18.50;35.72
36630;BME280;36256;42.154;23.002;2024-03-23T11:14:50;96950.72;;;18.60;38.14
36630;BME280;36256;42.154;23.002;2024-03-23T11:17:21;96951.75;;;18.79;39.18
36630;BME280;36256;42.154;23.002;2024-03-23T11:19:59;96941.63;;;18.95;33.61
36630;BME280;36256;42.154;23.002;2024-03-23T11:27:42;96917.56;;;19.18;36.33
36630;BME280;36256;42.154;23.002;2024-03-23T11:30:18;96915.84;;;18.82;34.24
36630;BME280;36256;42.154;23.002;2024-03-23T11:32:48;96919.97;;;18.69;36.87
36630;BME280;36256;42.154;23.002;2024-03-23T11:35:41;96908.06;;;18.88;35.49
36630;BME280;36256;42.154;23.002;2024-03-23T11:38:11;96904.66;;;19.11;37.22
36630;BME280;36256;42.154;23.002;2024-03-23T11:40:39;96897.19;;;19.03;40.40
36630;BME280;36256;42.154;23.002;2024-03-23T11:43:06;96896.91;;;19.17;36.57
36630;BME280;36256;42.154;23.002;2024-03-23T11:45:36;96893.00;;;19.20;37.41
36630;BME280;36256;42.154;23.002;2024-03-23T11:48:06;96883.22;;;19.05;34.37
36630;BME280;36256;42.154;23.002;2024-03-23T11:50:33;96875.75;;;18.96;34.75
36630;BME280;36256;42.154;23.002;2024-03-23T11:58:12;96860.22;;;18.97;37.29
36630;BME280;36256;42.154;23.002;2024-03-23T12:00:38;96856.56;;;19.08;33.14
36630;BME280;36256;42.154;23.002;2024-03-23T12:03:04;96850.38;;;19.04;33.21
36630;BME280;36256;42.154;23.002;2024-03-23T12:05:31;96837.72;;;19.05;35.25
36630;BME280;36256;42.154;23.002;2024-03-23T12:10:47;96833.91;;;19.54;35.72
36630;BME280;36256;42.154;23.002;2024-03-23T12:13:17;96829.22;;;19.62;34.95
36630;BME280;36256;42.154;23.002;2024-03-23T12:15:50;96830.09;;;19.46;34.70
36630;BME280;36256;42.154;23.002;2024-03-23T12:18:16;96821.34;;;19.38;35.05
36630;BME280;36256;42.154;23.002;2024-03-23T12:20:42;96820.31;;;19.25;36.43
36630;BME280;36256;42.154;23.002;2024-03-23T12:23:09;96822.38;;;19.24;34.57
36630;BME280;36256;42.154;23.002;2024-03-23T12:25:35;96818.09;;;18.96;33.19
36630;BME280;36256;42.154;23.002;2024-03-23T12:28:02;96817.56;;;19.03;34.32
36630;BME280;36256;42.154;23.002;2024-03-23T12:30:28;96810.34;;;18.91;35.37
36630;BME280;36256;42.154;23.002;2024-03-23T12:32:53;96798.44;;;18.98;35.21
36630;BME280;36256;42.154;23.002;2024-03-23T12:35:19;96804.63;;;19.02;34.23
36630;BME280;36256;42.154;23.002;2024-03-23T12:37:46;96800.25;;;18.95;32.97
36630;BME280;36256;42.154;23.002;2024-03-23T12:40:11;96785.53;;;18.97;34.01
36630;BME280;36256;42.154;23.002;2024-03-23T12:42:37;96774.66;;;19.06;33.96
36630;BME280;36256;42.154;23.002;2024-03-23T12:45:04;96774.06;;;19.19;33.49
36630;BME280;36256;42.154;23.002;2024-03-23T12:47:30;96775.72;;;18.98;34.28
36630;BME280;36256;42.154;23.002;2024-03-23T12:49:56;96777.00;;;19.02;35.25
36630;BME280;36256;42.154;23.002;2024-03-23T12:52:22;96769.28;;;18.92;34.29
36630;BME280;36256;42.154;23.002;2024-03-23T12:54:49;96756.34;;;18.96;35.21
36630;BME280;36256;42.154;23.002;2024-03-23T12:57:15;96758.84;;;19.11;36.19
36630;BME280;36256;42.154;23.002;2024-03-23T12:59:40;96762.19;;;19.15;36.38
36630;BME280;36256;42.154;23.002;2024-03-23T13:02:06;96759.56;;;19.22;36.25
36630;BME280;36256;42.154;23.002;2024-03-23T13:04:32;96765.47;;;19.30;35.31
36630;BME280;36256;42.154;23.002;2024-03-23T13:06:58;96741.22;;;19.23;34.14
36630;BME280;36256;42.154;23.002;2024-03-23T13:09:24;96748.34;;;19.41;35.59
36630;BME280;36256;42.154;23.002;2024-03-23T13:11:49;96735.63;;;19.53;34.21
36630;BME280;36256;42.154;23.002;2024-03-23T13:14:15;96741.13;;;19.40;33.05
36630;BME280;36256;42.154;23.002;2024-03-23T13:16:42;96720.75;;;19.36;34.41
36630;BME280;36256;42.154;23.002;2024-03-23T13:19:08;96732.69;;;19.23;33.76
36630;BME280;36256;42.154;23.002;2024-03-23T13:21:33;96718.13;;;19.38;35.20
36630;BME280;36256;42.154;23.002;2024-03-23T13:23:59;96727.88;;;19.48;34.59
36630;BME280;36256;42.154;23.002;2024-03-23T13:26:24;96727.94;;;19.37;34.04
36630;BME280;36256;42.154;23.002;2024-03-23T13:28:50;96728.25;;;19.28;33.14
36630;BME280;36256;42.154;23.002;2024-03-23T13:31:16;96719.28;;;19.13;33.82
36630;BME280;36256;42.154;23.002;2024-03-23T13:33:41;96717.19;;;19.19;33.77
36630;BME280;36256;42.154;23.002;2024-03-23T13:36:09;96709.69;;;19.16;33.69
36630;BME280;36256;42.154;23.002;2024-03-23T13:38:35;96721.00;;;19.27;33.78
36630;BME280;36256;42.154;23.002;2024-03-23T13:41:01;96708.09;;;19.26;33.63
36630;BME280;36256;42.154;23.002;2024-03-23T13:43:27;96704.94;;;19.40;34.04
36630;BME280;36256;42.154;23.002;2024-03-23T13:45:55;96695.38;;;19.38;33.25
36630;BME280;36256;42.154;23.002;2024-03-23T13:48:22;96690.72;;;19.35;33.62
36630;BME280;36256;42.154;23.002;2024-03-23T13:50:59;96687.00;;;19.51;32.91
36630;BME280;36256;42.154;23.002;2024-03-23T13:53:25;96687.28;;;19.47;33.70
36630;BME280;36256;42.154;23.002;2024-03-23T13:55:51;96688.06;;;19.48;32.86
36630;BME280;36256;42.154;23.002;2024-03-23T13:58:17;96689.78;;;19.16;32.43
36630;BME280;36256;42.154;23.002;2024-03-23T14:00:43;96686.16;;;19.21;33.50
36630;BME280;36256;42.154;23.002;2024-03-23T14:03:09;96677.81;;;19.34;33.02
36630;BME280;36256;42.154;23.002;2024-03-23T14:05:36;96663.84;;;19.36;32.79